Time;durP1;ratioP1;P1;durP2;ratioP2;P2;SDS_P1;SDS_P2;PMS_P1;PMS_P2;Temp;Humidity;BMP_temperature;BMP_pressure;BME280_temperature;BME280_humidity;BME280_pressure;Samples;Min_cycle;Max_cycle;Signal;HPM_P1;HPM_P2
2021/11/24 00:00:14;;;;;;;19.35;16.38;;;3.20;99.90;;;;;;5044878;28;20021;-75
2021/11/24 00:02:39;;;;;;;18.30;14.90;;;3.30;99.90;;;;;;5042906;28;20170;-75
2021/11/24 00:05:05;;;;;;;19.95;16.10;;;3.30;99.90;;;;;;5031042;28;20482;-75
2021/11/24 00:07:31;;;;;;;18.98;14.73;;;3.30;99.90;;;;;;5016700;28;20109;-75
2021/11/24 00:09:57;;;;;;;21.35;16.40;;;3.30;99.90;;;;;;5041311;28;20147;-75
2021/11/24 00:12:22;;;;;;;22.55;16.15;;;3.30;99.90;;;;;;5041312;28;20024;-74
2021/11/24 00:14:48;;;;;;;19.98;15.60;;;3.30;99.90;;;;;;5046386;28;20112;-76
2021/11/24 00:17:13;;;;;;;20.02;15.15;;;3.30;99.90;;;;;;5041200;28;20029;-75
2021/11/24 00:19:39;;;;;;;19.98;15.75;;;3.40;99.90;;;;;;5039936;28;20025;-76
2021/11/24 00:22:04;;;;;;;19.38;15.30;;;3.40;99.90;;;;;;5047663;28;20557;-76
2021/11/24 00:24:30;;;;;;;19.30;16.70;;;3.40;99.90;;;;;;5036364;28;20029;-75
2021/11/24 00:26:55;;;;;;;18.42;15.18;;;3.40;99.90;;;;;;5026607;28;20108;-76
2021/11/24 00:29:21;;;;;;;18.50;15.90;;;3.40;99.90;;;;;;5026506;28;20052;-76
2021/11/24 00:31:46;;;;;;;21.35;16.50;;;3.40;99.90;;;;;;5022663;28;20022;-77
2021/11/24 00:34:12;;;;;;;21.23;16.60;;;3.40;99.90;;;;;;5045528;28;20025;-76
2021/11/24 00:36:37;;;;;;;20.17;15.55;;;3.30;99.90;;;;;;5037805;28;20112;-76
2021/11/24 00:39:03;;;;;;;20.98;15.93;;;3.40;99.90;;;;;;5011275;28;20029;-76
2021/11/24 00:41:29;;;;;;;22.67;16.55;;;3.40;99.90;;;;;;5042187;28;20025;-75
2021/11/24 00:43:54;;;;;;;22.60;17.42;;;3.40;99.90;;;;;;5047585;28;20526;-76
2021/11/24 00:46:20;;;;;;;22.35;16.83;;;3.30;99.90;;;;;;5040526;28;20025;-75
2021/11/24 00:48:45;;;;;;;22.33;16.83;;;3.30;99.90;;;;;;5045445;28;20025;-76
2021/11/24 00:51:11;;;;;;;21.60;17.38;;;3.30;99.90;;;;;;5017729;28;20025;-76
2021/11/24 00:53:37;;;;;;;19.08;16.42;;;3.30;99.90;;;;;;5009518;28;20025;-76
2021/11/24 00:56:02;;;;;;;22.08;16.83;;;3.30;99.90;;;;;;5019638;28;20013;-77
2021/11/24 00:58:28;;;;;;;19.42;15.02;;;3.30;99.90;;;;;;5044038;28;20013;-76
2021/11/24 01:00:53;;;;;;;19.67;16.02;;;3.30;99.90;;;;;;5038747;28;20083;-76
2021/11/24 01:03:19;;;;;;;21.27;16.60;;;3.30;99.90;;;;;;5026038;28;20433;-75
2021/11/24 01:05:46;;;;;;;24.65;17.65;;;3.20;99.90;;;;;;5042854;28;20056;-76
2021/11/24 01:08:13;;;;;;;22.30;17.15;;;3.20;99.90;;;;;;5025886;28;20025;-76
2021/11/24 01:10:38;;;;;;;20.75;17.55;;;3.30;99.90;;;;;;5040391;28;20029;-76
2021/11/24 01:13:04;;;;;;;17.88;15.98;;;3.20;99.90;;;;;;5025943;28;20017;-76
2021/11/24 01:15:30;;;;;;;19.55;15.82;;;3.20;99.90;;;;;;5020348;28;20017;-75
2021/11/24 01:17:56;;;;;;;19.52;17.42;;;3.30;99.90;;;;;;5047079;28;20022;-76
2021/11/24 01:20:22;;;;;;;18.77;15.55;;;3.30;99.90;;;;;;5017707;28;20395;-76
2021/11/24 01:22:48;;;;;;;20.30;15.35;;;3.10;99.90;;;;;;5044996;28;20086;-76
2021/11/24 01:25:13;;;;;;;19.20;14.55;;;3.10;99.90;;;;;;5017603;28;20391;-75
2021/11/24 01:27:41;;;;;;;16.73;14.32;;;3.00;99.90;;;;;;5022641;28;20612;-76
2021/11/24 01:30:09;;;;;;;19.25;15.52;;;3.00;99.90;;;;;;5024874;28;20079;-75
2021/11/24 01:32:35;;;;;;;21.35;16.63;;;3.10;99.90;;;;;;5034186;28;20148;-75
2021/11/24 01:35:01;;;;;;;19.83;17.23;;;3.10;99.90;;;;;;5018608;28;20391;-75
2021/11/24 01:37:27;;;;;;;21.73;17.58;;;3.10;99.90;;;;;;5028049;28;20127;-75
2021/11/24 01:39:53;;;;;;;23.33;16.80;;;3.10;99.90;;;;;;5011913;28;20093;-75
2021/11/24 01:42:18;;;;;;;26.20;18.23;;;3.20;99.90;;;;;;5015867;28;20025;-74
2021/11/24 01:44:44;;;;;;;22.08;17.80;;;3.20;99.90;;;;;;5013052;28;20040;-74
2021/11/24 01:47:10;;;;;;;25.50;19.08;;;3.20;99.90;;;;;;5024314;28;20084;-74
2021/11/24 01:49:35;;;;;;;22.70;18.70;;;3.20;99.90;;;;;;5025267;28;20076;-74
2021/11/24 01:52:01;;;;;;;23.95;18.75;;;3.20;99.90;;;;;;5031510;28;20021;-74
2021/11/24 01:54:28;;;;;;;22.98;18.40;;;3.30;99.90;;;;;;5031196;28;20436;-74
2021/11/24 01:56:54;;;;;;;26.65;20.42;;;3.20;99.90;;;;;;5013742;28;20032;-74
2021/11/24 01:59:20;;;;;;;22.20;18.10;;;3.20;99.90;;;;;;5031445;28;20387;-74
2021/11/24 02:01:45;;;;;;;24.25;17.67;;;3.20;99.90;;;;;;5020354;28;20036;-75
2021/11/24 02:04:13;;;;;;;22.80;18.65;;;3.30;99.90;;;;;;5025953;28;20030;-75
2021/11/24 02:06:40;;;;;;;22.17;18.13;;;3.20;99.90;;;;;;4993820;28;20026;-75
2021/11/24 02:09:06;;;;;;;21.52;17.77;;;3.20;99.90;;;;;;4994084;28;20028;-75
2021/11/24 02:11:40;;;;;;;23.13;18.55;;;3.30;99.90;;;;;;5011696;28;20041;-75
2021/11/24 02:14:07;;;;;;;25.23;19.05;;;3.20;99.90;;;;;;4993708;28;20026;-74
2021/11/24 02:16:38;;;;;;;23.33;19.67;;;3.30;99.90;;;;;;5023607;28;20052;-76
2021/11/24 02:19:04;;;;;;;22.60;18.95;;;3.30;99.90;;;;;;5011991;28;20029;-75
2021/11/24 02:21:29;;;;;;;20.20;17.83;;;3.20;99.90;;;;;;5037333;28;20025;-75
2021/11/24 02:23:55;;;;;;;25.10;18.90;;;3.30;99.90;;;;;;5022463;28;20044;-75
2021/11/24 02:26:22;;;;;;;26.92;19.33;;;3.30;99.90;;;;;;5031093;28;20033;-75
2021/11/24 02:28:48;;;;;;;25.63;19.85;;;3.30;99.90;;;;;;5031061;28;20033;-74
2021/11/24 02:31:24;;;;;;;23.88;19.17;;;3.40;99.90;;;;;;5016539;28;20029;-75
2021/11/24 02:33:54;;;;;;;;;;;3.40;99.90;;;;;;5026491;28;20053;-75
2021/11/24 02:36:20;;;;;;;25.70;20.98;;;3.40;99.90;;;;;;5041745;28;19913;-74
2021/11/24 02:38:46;;;;;;;25.05;19.95;;;3.30;99.90;;;;;;4997446;28;20105;-74
2021/11/24 02:41:12;;;;;;;28.13;21.52;;;3.30;99.90;;;;;;5030648;28;20426;-75
2021/11/24 02:43:38;;;;;;;26.95;19.30;;;3.30;99.90;;;;;;5007793;28;20030;-75
2021/11/24 02:46:04;;;;;;;24.95;21.45;;;3.30;99.90;;;;;;5030522;28;20021;-75
2021/11/24 02:48:29;;;;;;;25.30;20.67;;;3.30;99.90;;;;;;5034651;28;20086;-75
2021/11/24 02:50:55;;;;;;;23.70;20.33;;;3.30;99.90;;;;;;5034837;28;20033;-74
2021/11/24 02:53:25;;;;;;;29.23;23.90;;;3.40;99.90;;;;;;5034621;28;20083;-74
2021/11/24 02:55:52;;;;;;;30.83;23.38;;;3.30;99.90;;;;;;5034149;28;20495;-74
2021/11/24 02:58:18;;;;;;;27.50;22.00;;;3.30;99.90;;;;;;5034587;28;20040;-74
2021/11/24 03:00:43;;;;;;;32.00;24.45;;;3.30;99.90;;;;;;5034409;28;20033;-75
2021/11/24 03:03:09;;;;;;;30.95;23.75;;;3.30;99.90;;;;;;5034329;28;20025;-74
2021/11/24 03:05:35;;;;;;;28.60;23.45;;;3.30;99.90;;;;;;5016591;28;20033;-74
2021/11/24 03:08:02;;;;;;;30.15;23.35;;;3.20;99.90;;;;;;5017390;28;20056;-75
2021/11/24 03:10:28;;;;;;;27.83;22.65;;;3.20;99.90;;;;;;5016557;28;20030;-75
2021/11/24 03:12:56;;;;;;;27.70;21.63;;;3.10;99.90;;;;;;5034218;28;20025;-75
2021/11/24 03:15:21;;;;;;;28.23;22.08;;;3.10;99.90;;;;;;5015973;28;20036;-75
2021/11/24 03:17:47;;;;;;;30.27;23.15;;;3.10;99.90;;;;;;5024833;28;20022;-75
2021/11/24 03:20:12;;;;;;;29.02;22.27;;;3.10;99.90;;;;;;4996808;28;20484;-75
2021/11/24 03:22:38;;;;;;;24.13;20.73;;;3.10;99.90;;;;;;5014403;28;20498;-75
2021/11/24 03:25:06;;;;;;;26.50;20.02;;;3.20;99.90;;;;;;5014062;28;20034;-75
2021/11/24 03:27:35;;;;;;;25.48;22.33;;;3.20;99.90;;;;;;5014157;28;20028;-75
2021/11/24 03:30:03;;;;;;;25.90;23.13;;;3.20;99.90;;;;;;5021033;28;20025;-75
2021/11/24 03:32:29;;;;;;;28.15;23.73;;;3.20;99.90;;;;;;5027693;28;20022;-75
2021/11/24 03:34:55;;;;;;;32.58;24.15;;;3.20;99.90;;;;;;5035551;28;20387;-76
2021/11/24 03:37:21;;;;;;;30.40;24.40;;;3.20;99.90;;;;;;5005345;28;20118;-76
2021/11/24 03:39:48;;;;;;;29.73;23.80;;;3.20;99.90;;;;;;4996504;28;20030;-75
2021/11/24 03:42:15;;;;;;;31.08;23.55;;;3.20;99.90;;;;;;4999694;28;20025;-75
2021/11/24 03:44:41;;;;;;;29.48;22.42;;;3.20;99.90;;;;;;5015278;28;20395;-75
2021/11/24 03:47:07;;;;;;;30.92;23.23;;;3.20;99.90;;;;;;5014372;28;20038;-75
2021/11/24 03:49:33;;;;;;;30.42;22.90;;;3.10;99.90;;;;;;5000577;28;20029;-76
2021/11/24 03:51:58;;;;;;;28.40;22.92;;;3.20;99.90;;;;;;5015788;28;20049;-76
2021/11/24 03:54:24;;;;;;;28.65;22.13;;;3.10;99.90;;;;;;5015591;28;20017;-76
2021/11/24 03:56:50;;;;;;;33.00;25.55;;;3.20;99.90;;;;;;5033390;28;20036;-77
2021/11/24 03:59:15;;;;;;;29.63;24.48;;;3.20;99.90;;;;;;5002608;28;20033;-74
2021/11/24 04:01:41;;;;;;;30.35;25.05;;;3.10;99.90;;;;;;5015707;28;20476;-74
2021/11/24 04:04:06;;;;;;;27.85;23.55;;;3.20;99.90;;;;;;5015518;28;20033;-74
2021/11/24 04:06:32;;;;;;;27.77;22.63;;;3.20;99.90;;;;;;5033071;28;20036;-73
2021/11/24 04:08:59;;;;;;;29.77;23.55;;;3.20;99.90;;;;;;5029638;28;20552;-74
2021/11/24 04:11:25;;;;;;;30.52;22.88;;;3.20;99.90;;;;;;4996080;28;20022;-74
2021/11/24 04:13:51;;;;;;;29.60;23.70;;;3.20;99.90;;;;;;5013567;28;20491;-74
2021/11/24 04:16:16;;;;;;;27.83;21.85;;;3.10;99.90;;;;;;5013405;28;20022;-73
2021/11/24 04:18:43;;;;;;;24.30;20.50;;;3.10;99.90;;;;;;5013102;28;20030;-72
2021/11/24 04:21:09;;;;;;;25.20;19.92;;;3.10;99.90;;;;;;4995728;28;20057;-73
2021/11/24 04:23:34;;;;;;;24.25;19.20;;;3.10;99.90;;;;;;5013035;28;20053;-73
2021/11/24 04:26:00;;;;;;;25.08;19.60;;;3.20;99.90;;;;;;5012879;28;20105;-73
2021/11/24 04:28:26;;;;;;;27.30;21.52;;;3.30;99.90;;;;;;5011748;28;20179;-74
2021/11/24 04:30:52;;;;;;;27.38;19.55;;;3.30;99.90;;;;;;5033037;28;20025;-74
2021/11/24 04:33:17;;;;;;;25.52;20.85;;;3.30;99.90;;;;;;5030169;28;20028;-75
2021/11/24 04:35:43;;;;;;;26.17;20.48;;;3.30;99.90;;;;;;5006297;28;20124;-75
2021/11/24 04:38:09;;;;;;;24.02;20.67;;;3.20;99.90;;;;;;5015667;28;20058;-73
2021/11/24 04:40:35;;;;;;;24.65;20.50;;;3.20;99.90;;;;;;5012908;28;20125;-74
2021/11/24 04:43:03;;;;;;;24.55;20.05;;;3.20;99.90;;;;;;5018599;28;20454;-74
2021/11/24 04:45:29;;;;;;;31.55;26.20;;;3.30;99.90;;;;;;5005516;28;20116;-75
2021/11/24 04:47:55;;;;;;;32.47;27.10;;;3.30;99.90;;;;;;5014632;28;20025;-74
2021/11/24 04:50:20;;;;;;;32.83;26.92;;;3.30;99.90;;;;;;5047763;28;20075;-75
2021/11/24 04:52:47;;;;;;;25.55;20.10;;;3.30;99.90;;;;;;5031853;28;20021;-74
2021/11/24 04:55:14;;;;;;;18.52;15.73;;;3.30;99.90;;;;;;5032042;28;20491;-74
2021/11/24 04:57:40;;;;;;;17.67;15.07;;;3.30;99.90;;;;;;5014346;28;20025;-74
2021/11/24 05:00:11;;;;;;;15.48;13.55;;;3.30;99.90;;;;;;5014483;28;20129;-74
2021/11/24 05:02:36;;;;;;;13.90;12.48;;;3.30;99.90;;;;;;5032230;28;20018;-75
2021/11/24 05:05:03;;;;;;;12.38;10.43;;;3.30;99.90;;;;;;5031967;28;20034;-75
2021/11/24 05:07:29;;;;;;;12.52;10.52;;;3.20;99.90;;;;;;4996617;28;20030;-76
2021/11/24 05:09:54;;;;;;;11.00;8.60;;;3.30;99.90;;;;;;5029747;28;20490;-76
2021/11/24 05:12:20;;;;;;;8.98;8.02;;;3.30;99.90;;;;;;5029139;28;20033;-76
2021/11/24 05:14:48;;;;;;;8.13;7.10;;;3.40;99.90;;;;;;5039424;28;20076;-76
2021/11/24 05:17:16;;;;;;;7.70;6.75;;;3.40;99.90;;;;;;5013988;28;20029;-77
2021/11/24 05:19:46;;;;;;;7.75;6.97;;;3.40;99.90;;;;;;5019025;28;20033;-77
2021/11/24 05:22:13;;;;;;;7.32;6.68;;;3.40;99.90;;;;;;5018917;28;20026;-76
2021/11/24 05:24:38;;;;;;;8.23;7.32;;;3.40;99.90;;;;;;5002190;28;20508;-73
2021/11/24 05:27:05;;;;;;;9.35;8.27;;;3.40;99.90;;;;;;5007654;28;20033;-73
2021/11/24 05:29:31;;;;;;;7.60;6.40;;;3.40;99.90;;;;;;5028922;28;20155;-74
2021/11/24 05:31:56;;;;;;;10.30;8.85;;;3.30;99.90;;;;;;5026215;28;20037;-76
2021/11/24 05:34:22;;;;;;;11.48;10.27;;;3.30;99.90;;;;;;5024240;28;20030;-74
2021/11/24 05:36:48;;;;;;;17.00;12.52;;;3.30;99.90;;;;;;5026190;28;20041;-74
2021/11/24 05:39:14;;;;;;;14.23;12.75;;;3.30;99.90;;;;;;5026726;28;20025;-74
2021/11/24 05:41:43;;;;;;;13.30;11.90;;;3.20;99.90;;;;;;5025558;28;20106;-74
2021/11/24 05:44:24;;;;;;;15.05;11.30;;;3.20;99.90;;;;;;5007410;28;20037;-74
2021/11/24 05:46:58;;;;;;;13.25;11.30;;;3.30;99.90;;;;;;5020530;28;20028;-74
2021/11/24 05:49:25;;;;;;;11.85;10.60;;;3.30;99.90;;;;;;5018535;28;20097;-73
2021/11/24 05:51:52;;;;;;;14.88;11.40;;;3.30;99.90;;;;;;5021889;28;20037;-74
2021/11/24 05:54:18;;;;;;;12.43;10.60;;;3.40;99.90;;;;;;5025230;28;20041;-73
2021/11/24 05:56:45;;;;;;;13.60;10.15;;;3.40;99.90;;;;;;5021603;28;20030;-74
2021/11/24 05:59:12;;;;;;;9.35;8.43;;;3.40;99.90;;;;;;5000896;28;20030;-74
2021/11/24 06:01:38;;;;;;;7.75;6.22;;;3.40;99.90;;;;;;5021501;28;20033;-73
2021/11/24 06:04:04;;;;;;;8.45;7.28;;;3.40;99.90;;;;;;5024853;28;20037;-74
2021/11/24 06:06:30;;;;;;;11.23;9.75;;;3.40;99.90;;;;;;5025604;28;20112;-73
2021/11/24 06:08:56;;;;;;;8.48;7.35;;;3.30;99.90;;;;;;5022612;28;20025;-75
2021/11/24 06:11:21;;;;;;;12.90;11.18;;;3.30;99.90;;;;;;5025426;28;20041;-75
2021/11/24 06:13:47;;;;;;;13.70;12.00;;;3.30;99.90;;;;;;5029230;28;20603;-74
2021/11/24 06:16:13;;;;;;;19.42;13.80;;;3.30;99.90;;;;;;5025873;28;20026;-75
2021/11/24 06:18:39;;;;;;;15.70;13.02;;;3.20;99.90;;;;;;5001322;28;20057;-75
2021/11/24 06:21:04;;;;;;;13.95;10.68;;;3.20;99.90;;;;;;5025716;28;20025;-76
2021/11/24 06:23:30;;;;;;;11.98;10.70;;;3.20;99.90;;;;;;5022176;28;20022;-75
2021/11/24 06:25:55;;;;;;;11.00;9.85;;;3.30;99.90;;;;;;5025293;28;20025;-75
2021/11/24 06:28:21;;;;;;;11.82;10.00;;;3.30;99.90;;;;;;5028809;28;20033;-75
2021/11/24 06:30:47;;;;;;;12.20;10.13;;;3.30;99.90;;;;;;5007487;28;20096;-75
2021/11/24 06:33:12;;;;;;;10.77;9.68;;;3.30;99.90;;;;;;5022163;28;20049;-75
2021/11/24 06:35:38;;;;;;;14.15;10.65;;;3.30;99.90;;;;;;5026625;28;20044;-75
2021/11/24 06:38:04;;;;;;;11.52;9.13;;;3.20;99.90;;;;;;5033557;28;20488;-76
2021/11/24 06:40:30;;;;;;;11.35;8.82;;;3.30;99.90;;;;;;5024077;28;20331;-75
2021/11/24 06:42:56;;;;;;;11.00;8.98;;;3.30;99.90;;;;;;5020628;28;20112;-75
2021/11/24 06:45:22;;;;;;;10.50;9.07;;;3.30;99.90;;;;;;5005852;28;20021;-75
2021/11/24 06:47:48;;;;;;;9.40;8.45;;;3.40;99.90;;;;;;5027122;28;20032;-75
2021/11/24 06:50:15;;;;;;;11.70;10.57;;;3.40;99.90;;;;;;5006118;28;20458;-76
2021/11/24 06:52:41;;;;;;;13.73;12.27;;;3.40;99.90;;;;;;5024880;28;20037;-74
2021/11/24 06:55:07;;;;;;;44.92;36.85;;;3.20;99.90;;;;;;5011993;28;20499;-75
2021/11/24 06:57:33;;;;;;;36.50;32.58;;;3.20;99.90;;;;;;5030460;28;20036;-75
2021/11/24 06:59:58;;;;;;;28.40;25.23;;;3.10;99.90;;;;;;5023335;28;20079;-75
2021/11/24 07:02:24;;;;;;;21.13;18.95;;;3.10;99.90;;;;;;5030443;28;20025;-71
2021/11/24 07:04:50;;;;;;;20.73;17.85;;;3.20;99.90;;;;;;5005154;28;20030;-75
2021/11/24 07:07:15;;;;;;;17.50;15.60;;;3.20;99.90;;;;;;5020262;28;20033;-75
2021/11/24 07:09:41;;;;;;;20.58;18.20;;;3.20;99.90;;;;;;5023819;28;20076;-75
2021/11/24 07:12:08;;;;;;;36.58;30.45;;;3.20;99.90;;;;;;5027080;28;20492;-75
2021/11/24 07:14:34;;;;;;;38.30;30.70;;;3.30;99.90;;;;;;5022870;28;20026;-76
2021/11/24 07:17:00;;;;;;;35.83;30.45;;;3.40;99.90;;;;;;5001990;28;20033;-75
2021/11/24 07:19:26;;;;;;;36.28;29.80;;;3.30;99.90;;;;;;5005571;28;20443;-75
2021/11/24 07:21:52;;;;;;;28.67;23.77;;;3.40;99.90;;;;;;5026560;28;20061;-75
2021/11/24 07:24:19;;;;;;;23.40;18.58;;;3.40;99.90;;;;;;5005509;28;20029;-75
2021/11/24 07:26:46;;;;;;;27.25;22.58;;;3.40;99.90;;;;;;5002157;28;20033;-75
2021/11/24 07:29:12;;;;;;;47.10;36.78;;;3.40;99.90;;;;;;5005200;28;20029;-75
2021/11/24 07:31:38;;;;;;;37.15;28.67;;;3.30;99.90;;;;;;5008776;28;20026;-75
2021/11/24 07:34:04;;;;;;;30.35;24.15;;;3.40;99.90;;;;;;5023685;28;20022;-75
2021/11/24 07:36:30;;;;;;;24.25;21.65;;;3.50;99.90;;;;;;4997094;28;1063898;-75
2021/11/24 07:38:55;;;;;;;29.83;23.65;;;3.50;99.90;;;;;;5023656;28;20125;-75
2021/11/24 07:41:21;;;;;;;24.48;20.85;;;3.50;99.90;;;;;;5001821;28;20080;-75
2021/11/24 07:43:47;;;;;;;20.42;17.58;;;4.00;99.90;;;;;;5041868;28;20522;-75
2021/11/24 07:46:12;;;;;;;16.48;14.77;;;3.50;99.90;;;;;;5020354;28;20498;-75
2021/11/24 07:48:38;;;;;;;15.88;14.23;;;3.40;99.90;;;;;;5023306;28;20033;-75
2021/11/24 07:51:04;;;;;;;17.40;15.60;;;3.40;99.90;;;;;;5009755;28;20022;-75
2021/11/24 07:53:30;;;;;;;17.30;15.50;;;3.40;99.90;;;;;;5006561;28;20109;-75
2021/11/24 07:55:55;;;;;;;16.55;14.93;;;3.40;99.90;;;;;;5002676;28;20502;-74
2021/11/24 07:58:21;;;;;;;15.70;13.60;;;3.30;99.90;;;;;;5023480;28;20416;-75
2021/11/24 08:00:47;;;;;;;15.23;12.27;;;3.40;99.90;;;;;;5027127;28;20037;-76
2021/11/24 08:03:13;;;;;;;13.32;11.95;;;3.50;99.90;;;;;;5013913;28;20030;-74
2021/11/24 08:05:39;;;;;;;13.63;11.65;;;3.60;99.90;;;;;;5027090;28;20022;-75
2021/11/24 08:08:05;;;;;;;12.80;11.57;;;3.80;99.90;;;;;;5024821;28;20072;-75
2021/11/24 08:10:30;;;;;;;13.30;11.88;;;3.90;99.90;;;;;;5020162;28;20107;-74
2021/11/24 08:12:56;;;;;;;12.63;11.43;;;3.90;99.90;;;;;;5041986;28;20149;-75
2021/11/24 08:15:22;;;;;;;14.70;11.82;;;3.90;99.90;;;;;;5012027;28;20026;-76
2021/11/24 08:17:48;;;;;;;13.48;11.65;;;3.90;99.90;;;;;;5005649;28;20033;-76
2021/11/24 08:20:14;;;;;;;13.55;10.93;;;3.90;99.90;;;;;;5019978;28;20026;-75
2021/11/24 08:22:40;;;;;;;13.05;11.65;;;4.00;99.90;;;;;;5023303;28;20021;-76
2021/11/24 08:25:07;;;;;;;12.63;11.05;;;4.10;99.90;;;;;;5026262;28;20033;-75
2021/11/24 08:27:34;;;;;;;12.88;11.02;;;4.10;99.90;;;;;;5022523;28;20071;-75
2021/11/24 08:29:59;;;;;;;13.95;10.88;;;4.20;99.90;;;;;;5019799;28;20025;-76
2021/11/24 08:32:25;;;;;;;12.35;11.10;;;4.20;99.90;;;;;;5022544;28;20084;-75
2021/11/24 08:34:50;;;;;;;16.92;13.82;;;4.10;99.90;;;;;;5029633;28;20037;-76
2021/11/24 08:37:16;;;;;;;19.95;15.93;;;4.20;99.90;;;;;;5004830;28;20030;-76
2021/11/24 08:39:42;;;;;;;21.15;17.45;;;4.20;99.90;;;;;;5016717;28;20109;-75
2021/11/24 08:42:09;;;;;;;22.00;17.58;;;4.20;99.90;;;;;;5022421;28;20034;-75
2021/11/24 08:44:35;;;;;;;22.17;17.60;;;4.20;99.90;;;;;;5025931;28;20440;-75
2021/11/24 08:47:01;;;;;;;18.40;14.93;;;4.20;99.90;;;;;;5023591;28;20026;-75
2021/11/24 08:49:26;;;;;;;20.35;16.52;;;4.50;99.90;;;;;;5019324;28;20036;-76
2021/11/24 08:51:52;;;;;;;20.40;15.77;;;4.30;99.90;;;;;;5004228;28;20062;-76
2021/11/24 08:54:17;;;;;;;17.60;14.48;;;4.30;99.90;;;;;;5025867;28;20034;-76
2021/11/24 08:56:43;;;;;;;17.10;13.68;;;4.30;99.90;;;;;;5005752;28;20030;-76
2021/11/24 08:59:09;;;;;;;12.85;11.55;;;4.40;99.90;;;;;;5018892;28;20036;-75
2021/11/24 09:01:36;;;;;;;11.88;9.70;;;4.50;99.90;;;;;;5021614;28;20088;-75
2021/11/24 09:04:01;;;;;;;6.60;6.00;;;4.50;99.90;;;;;;5008175;28;20026;-76
2021/11/24 09:06:27;;;;;;;4.15;3.83;;;4.40;99.90;;;;;;5023306;28;20408;-76
2021/11/24 09:08:53;;;;;;;6.47;5.28;;;4.50;99.90;;;;;;5018877;28;20025;-76
2021/11/24 09:11:19;;;;;;;5.15;4.65;;;4.60;99.90;;;;;;5003681;28;20021;-76
2021/11/24 09:13:45;;;;;;;3.80;2.90;;;4.70;99.90;;;;;;5007902;28;20099;-76
2021/11/24 09:16:10;;;;;;;3.60;2.83;;;4.80;99.90;;;;;;5022924;28;20021;-76
2021/11/24 09:18:36;;;;;;;4.82;2.65;;;4.90;99.90;;;;;;5000980;28;20688;-75
2021/11/24 09:21:02;;;;;;;2.70;2.50;;;4.80;99.90;;;;;;5004055;28;20030;-77
2021/11/24 09:23:29;;;;;;;2.20;2.00;;;4.80;99.90;;;;;;5025489;28;20435;-76
2021/11/24 09:26:14;;;;;;;2.05;1.75;;;4.80;99.90;;;;;;5022004;28;20029;-75
2021/11/24 09:28:41;;;;;;;2.45;1.90;;;4.80;99.90;;;;;;5018650;28;20045;-76
2021/11/24 09:31:07;;;;;;;2.33;2.10;;;5.00;99.90;;;;;;5018819;28;20030;-76
2021/11/24 09:33:34;;;;;;;3.88;2.70;;;5.10;99.90;;;;;;4994523;28;20497;-76
2021/11/24 09:36:00;;;;;;;2.72;2.53;;;5.20;99.90;;;;;;5025156;28;20033;-76
2021/11/24 09:38:26;;;;;;;2.90;2.38;;;5.20;99.90;;;;;;5018527;28;20072;-76
2021/11/24 09:40:55;;;;;;;2.85;2.65;;;5.20;99.90;;;;;;5001165;28;20053;-75
2021/11/24 09:43:22;;;;;;;2.42;2.22;;;5.30;99.90;;;;;;5018905;28;20391;-76
2021/11/24 09:45:48;;;;;;;2.28;2.00;;;5.30;99.90;;;;;;5031150;28;20087;-76
2021/11/24 09:48:16;;;;;;;2.50;1.90;;;5.40;99.90;;;;;;5001045;28;20079;-75
2021/11/24 09:50:46;;;;;;;3.03;1.70;;;5.50;99.90;;;;;;5000773;28;20026;-75
2021/11/24 09:53:14;;;;;;;1.85;1.70;;;5.40;99.90;;;;;;5023983;28;20067;-76
2021/11/24 09:55:40;;;;;;;1.52;1.42;;;5.40;99.90;;;;;;5007193;28;20025;-76
2021/11/24 09:58:07;;;;;;;2.08;1.80;;;5.40;99.90;;;;;;5007207;28;20025;-76
2021/11/24 10:00:36;;;;;;;1.58;1.48;;;5.50;99.90;;;;;;5000482;28;20038;-76
2021/11/24 10:03:03;;;;;;;2.78;1.70;;;5.60;99.90;;;;;;5023313;28;20373;-76
2021/11/24 10:05:30;;;;;;;2.20;2.00;;;5.70;99.90;;;;;;5007278;28;20036;-75
2021/11/24 10:07:57;;;;;;;2.10;1.90;;;5.70;99.90;;;;;;5002405;28;20030;-76
2021/11/24 10:10:24;;;;;;;2.42;2.08;;;5.70;99.90;;;;;;5018356;28;20499;-74
2021/11/24 10:12:50;;;;;;;4.45;3.67;;;5.60;99.90;;;;;;5005461;28;20369;-74
2021/11/24 10:15:41;;;;;;;4.63;3.22;;;5.60;99.90;;;;;;5024627;28;20021;-74
2021/11/24 10:18:22;;;;;;;3.03;2.60;;;5.70;99.90;;;;;;5006079;28;20530;-74
2021/11/24 10:21:09;;;;;;;4.55;2.95;;;5.70;99.90;;;;;;5001533;28;20041;-74
2021/11/24 10:23:41;;;;;;;3.50;2.85;;;5.80;99.90;;;;;;5000621;28;20083;-73
2021/11/24 10:26:34;;;;;;;3.72;3.22;;;5.80;99.90;;;;;;5020181;28;20545;-73
2021/11/24 10:29:06;;;;;;;4.60;3.50;;;5.90;99.90;;;;;;5019766;28;20483;-73
2021/11/24 10:32:02;;;;;;;3.42;3.13;;;5.80;99.90;;;;;;5018030;28;20045;-76
2021/11/24 10:34:39;;;;;;;3.58;3.28;;;5.70;99.90;;;;;;5018365;28;20461;-76
2021/11/24 10:37:06;;;;;;;3.80;3.40;;;5.80;99.90;;;;;;5020171;28;20093;-75
2021/11/24 10:39:40;;;;;;;4.25;3.35;;;5.90;99.90;;;;;;5018040;28;20369;-76
2021/11/24 10:42:05;;;;;;;5.35;4.18;;;5.90;99.90;;;;;;5021508;28;20033;-75
2021/11/24 10:44:33;;;;;;;4.65;4.25;;;5.80;99.90;;;;;;5024646;28;20030;-75
2021/11/24 10:46:59;;;;;;;4.07;3.67;;;5.80;99.90;;;;;;5024832;28;20041;-75
2021/11/24 10:49:37;;;;;;;5.93;3.72;;;5.80;99.90;;;;;;5026340;28;20032;-75
2021/11/24 10:52:27;;;;;;;5.15;3.92;;;5.90;99.90;;;;;;5007541;28;20037;-75
2021/11/24 10:54:56;;;;;;;3.40;3.10;;;5.90;99.90;;;;;;5010832;28;20096;-75
2021/11/24 10:57:22;;;;;;;3.88;3.47;;;5.90;99.90;;;;;;5021425;28;20022;-75
2021/11/24 10:59:47;;;;;;;3.90;3.55;;;6.00;99.90;;;;;;5026115;28;20138;-75
2021/11/24 11:02:20;;;;;;;4.85;4.00;;;6.00;99.90;;;;;;5028383;28;20040;-75
2021/11/24 11:04:59;;;;;;;3.90;3.45;;;6.00;99.90;;;;;;5006695;28;20407;-75
2021/11/24 11:07:27;;;;;;;3.67;2.80;;;5.90;99.90;;;;;;5021171;28;20025;-75
2021/11/24 11:10:05;;;;;;;4.90;2.90;;;5.80;99.90;;;;;;5034680;28;20109;-75
2021/11/24 11:12:32;;;;;;;3.20;2.80;;;6.00;99.90;;;;;;5003889;28;20026;-75
2021/11/24 11:15:22;;;;;;;3.13;2.67;;;5.90;99.90;;;;;;5020845;28;20026;-75
2021/11/24 11:17:56;;;;;;;2.78;2.58;;;6.00;99.90;;;;;;5006550;28;20029;-75
2021/11/24 11:20:23;;;;;;;2.75;2.45;;;6.00;99.90;;;;;;5009919;28;20090;-75
2021/11/24 11:23:05;;;;;;;5.13;4.22;;;6.00;99.90;;;;;;5026240;28;20078;-75
2021/11/24 11:25:31;;;;;;;2.75;2.25;;;5.90;99.90;;;;;;5021942;28;20026;-75
2021/11/24 11:27:59;;;;;;;2.33;2.20;;;5.90;99.90;;;;;;5022781;28;20060;-73
2021/11/24 11:30:25;;;;;;;3.75;2.40;;;5.90;99.90;;;;;;5004227;28;20020;-74
2021/11/24 11:32:51;;;;;;;3.92;3.20;;;6.10;99.90;;;;;;5029436;28;20044;-74
2021/11/24 11:35:17;;;;;;;2.38;2.08;;;5.80;99.90;;;;;;5024096;28;20479;-74
2021/11/24 11:37:45;;;;;;;2.55;2.35;;;5.90;99.90;;;;;;5024748;28;20034;-74
2021/11/24 11:40:16;;;;;;;2.55;2.35;;;6.10;99.90;;;;;;5045861;28;20095;-74
2021/11/24 11:42:43;;;;;;;2.10;1.90;;;6.20;99.90;;;;;;5029872;28;20056;-73
2021/11/24 11:45:11;;;;;;;2.05;1.83;;;6.20;99.90;;;;;;5037106;28;20043;-74
2021/11/24 11:47:44;;;;;;;1.90;1.80;;;6.20;99.90;;;;;;5024177;28;20026;-73
2021/11/24 11:50:10;;;;;;;1.92;1.80;;;6.30;99.90;;;;;;5018539;28;20495;-73
2021/11/24 11:52:36;;;;;;;1.70;1.55;;;6.20;99.90;;;;;;5022998;28;20017;-74
2021/11/24 11:55:21;;;;;;;2.20;1.77;;;6.00;99.90;;;;;;5041625;28;20103;-73
2021/11/24 11:57:47;;;;;;;1.80;1.70;;;5.90;99.90;;;;;;5020555;28;20115;-74
2021/11/24 12:00:13;;;;;;;1.88;1.67;;;6.00;99.90;;;;;;5030795;28;20499;-73
2021/11/24 12:02:51;;;;;;;2.00;1.70;;;5.80;99.90;;;;;;5018508;28;20042;-74
2021/11/24 12:05:17;;;;;;;2.53;2.05;;;5.70;99.90;;;;;;5040328;28;20398;-74
2021/11/24 12:08:09;;;;;;;2.80;2.58;;;5.60;99.90;;;;;;5035881;28;20480;-73
2021/11/24 12:10:54;;;;;;;3.25;2.85;;;5.60;99.90;;;;;;5030147;28;20060;-73
2021/11/24 12:13:32;;;;;;;2.78;2.40;;;5.70;99.90;;;;;;5041949;28;20053;-73
2021/11/24 12:15:58;;;;;;;2.47;2.13;;;5.60;99.90;;;;;;5020726;28;20021;-74
2021/11/24 12:18:24;;;;;;;2.42;2.22;;;5.60;99.90;;;;;;5022086;28;20032;-75
2021/11/24 12:20:53;;;;;;;2.35;2.15;;;5.50;99.90;;;;;;5030505;28;20080;-75
2021/11/24 12:23:21;;;;;;;3.53;2.42;;;5.50;99.90;;;;;;5025185;28;20119;-73
2021/11/24 12:25:48;;;;;;;3.17;2.30;;;5.40;99.90;;;;;;5021198;28;20025;-75
2021/11/24 12:28:15;;;;;;;2.67;2.33;;;5.50;99.90;;;;;;5032976;28;20064;-74
2021/11/24 12:33:22;;;;;;;3.92;2.92;;;5.60;99.90;;;;;;5030443;28;20498;-75
2021/11/24 12:35:57;;;;;;;2.70;2.50;;;5.70;99.90;;;;;;5034892;28;20112;-74
2021/11/24 12:38:29;;;;;;;3.03;2.60;;;5.90;99.90;;;;;;5020115;28;20029;-74
2021/11/24 12:41:01;;;;;;;2.80;2.60;;;6.00;99.90;;;;;;5018861;28;20025;-73
2021/11/24 12:43:29;;;;;;;3.05;2.60;;;6.10;99.90;;;;;;5000488;28;20026;-74
2021/11/24 12:46:10;;;;;;;2.60;2.40;;;6.20;99.90;;;;;;5012574;28;20029;-74